Time;durP1;ratioP1;P1;durP2;ratioP2;P2;SDS_P1;SDS_P2;PMS_P1;PMS_P2;Temp;Humidity;BMP_temperature;BMP_pressure;BME280_temperature;BME280_humidity;BME280_pressure;Samples;Min_cycle;Max_cycle;Signal;HPM_P1;HPM_P2
2021/07/30 00:03:40;;;;;;;5.60;5.03;;;;;;;15.71;91.28;98750.31;10446132;28;20298;-79
2021/07/30 00:08:59;;;;;;;7.77;4.70;;;;;;;15.73;91.96;98742.34;10421769;28;20176;-78
2021/07/30 00:14:18;;;;;;;5.03;4.03;;;;;;;15.44;94.73;98738.81;10405453;28;20172;-77
2021/07/30 00:19:37;;;;;;;4.97;4.57;;;;;;;15.34;96.32;98736.34;10406200;28;20525;-78
2021/07/30 00:24:56;;;;;;;12.00;4.53;;;;;;;15.27;97.62;98740.09;10421123;28;20212;-78
2021/07/30 00:30:15;;;;;;;5.00;4.50;;;;;;;15.17;98.13;98737.59;10419354;28;20228;-77
2021/07/30 00:35:34;;;;;;;4.50;4.10;;;;;;;15.09;98.69;98746.56;10445043;28;20195;-77
2021/07/30 00:40:53;;;;;;;5.40;4.90;;;;;;;15.01;100.00;98745.19;10461610;28;20207;-78
2021/07/30 00:46:13;;;;;;;5.60;5.20;;;;;;;14.97;100.00;98738.94;10460192;28;20202;-78
2021/07/30 00:51:32;;;;;;;8.57;4.63;;;;;;;14.97;100.00;98744.50;10461438;28;20179;-78
2021/07/30 00:56:53;;;;;;;5.73;4.23;;;;;;;15.02;100.00;98746.75;10461186;28;20570;-79
2021/07/30 01:02:12;;;;;;;4.73;4.40;;;;;;;15.04;100.00;98744.28;10459434;28;20203;-78
2021/07/30 01:07:31;;;;;;;6.07;3.83;;;;;;;15.06;100.00;98750.97;10419741;28;20203;-78
2021/07/30 01:12:51;;;;;;;4.40;4.00;;;;;;;15.19;99.49;98747.03;10419286;28;20191;-79
2021/07/30 01:18:09;;;;;;;6.63;4.63;;;;;;;15.07;100.00;98754.50;10401499;28;20192;-78
2021/07/30 01:23:29;;;;;;;6.67;4.17;;;;;;;15.05;100.00;98746.66;10403381;28;20212;-79
2021/07/30 01:28:48;;;;;;;6.03;4.37;;;;;;;14.98;100.00;98738.53;10403488;28;20224;-78
2021/07/30 01:34:07;;;;;;;7.20;4.10;;;;;;;14.94;100.00;98734.31;10429973;28;20258;-79
2021/07/30 01:39:26;;;;;;;4.30;4.00;;;;;;;15.00;100.00;98736.06;10459497;28;20598;-78
2021/07/30 01:44:45;;;;;;;4.37;4.00;;;;;;;14.99;100.00;98744.84;10442967;28;20172;-78
2021/07/30 01:50:04;;;;;;;5.50;5.00;;;;;;;14.93;100.00;98739.03;10444179;28;20168;-79
2021/07/30 01:55:26;;;;;;;7.60;4.87;;;;;;;15.04;100.00;98735.97;10458989;28;20176;-78
2021/07/30 02:00:45;;;;;;;4.90;4.47;;;;;;;14.83;100.00;98728.25;10426026;28;20742;-79
2021/07/30 02:06:08;;;;;;;5.87;4.40;;;;;;;14.84;100.00;98729.81;10417167;28;20180;-78
2021/07/30 02:11:28;;;;;;;5.13;4.20;;;;;;;14.70;100.00;98732.97;10416977;28;20168;-78
2021/07/30 02:16:49;;;;;;;12.47;5.07;;;;;;;14.64;100.00;98731.91;10400574;28;20591;-78
2021/07/30 02:22:08;;;;;;;5.03;4.40;;;;;;;14.47;100.00;98728.38;10416063;28;20215;-79
2021/07/30 02:27:28;;;;;;;4.90;4.50;;;;;;;14.36;100.00;98732.63;10427784;28;20670;-78
2021/07/30 02:32:47;;;;;;;5.00;4.50;;;;;;;14.42;100.00;98734.41;10455482;28;20219;-78
2021/07/30 02:38:06;;;;;;;6.40;4.70;;;;;;;14.50;100.00;98726.72;10457283;28;20618;-78
2021/07/30 02:43:25;;;;;;;4.30;3.93;;;;;;;14.52;100.00;98721.53;10441280;28;20211;-77
2021/07/30 02:48:47;;;;;;;5.10;4.60;;;;;;;14.55;100.00;98723.44;10440564;28;20175;-78
2021/07/30 02:54:06;;;;;;;5.33;4.83;;;;;;;14.49;100.00;98720.44;10456664;28;20179;-77
2021/07/30 02:59:25;;;;;;;5.33;4.83;;;;;;;14.52;100.00;98719.53;10428640;28;20237;-78
2021/07/30 03:04:44;;;;;;;5.77;4.80;;;;;;;14.59;100.00;98719.38;10441305;28;20186;-77
2021/07/30 03:10:04;;;;;;;8.30;3.93;;;;;;;14.48;100.00;98729.16;10456204;28;20187;-78
2021/07/30 03:15:22;;;;;;;4.93;4.60;;;;;;;14.45;100.00;98716.97;10455054;28;20171;-78
2021/07/30 03:20:41;;;;;;;5.03;4.60;;;;;;;14.45;100.00;98727.25;10455772;28;20199;-77
2021/07/30 03:26:00;;;;;;;5.97;4.50;;;;;;;14.37;100.00;98723.13;10438442;28;20191;-78
2021/07/30 03:31:19;;;;;;;6.07;4.50;;;;;;;14.39;100.00;98710.41;10412861;28;20640;-78
2021/07/30 03:36:38;;;;;;;5.30;4.80;;;;;;;14.29;100.00;98698.81;10414551;28;20179;-77
2021/07/30 03:41:57;;;;;;;5.10;4.70;;;;;;;14.33;100.00;98705.81;10419157;28;20674;-77
2021/07/30 03:47:16;;;;;;;6.37;4.90;;;;;;;14.38;100.00;98703.31;10406084;28;20187;-77
2021/07/30 03:52:35;;;;;;;4.87;4.47;;;;;;;14.13;100.00;98707.09;10407434;28;20172;-78
2021/07/30 03:57:54;;;;;;;5.63;4.80;;;;;;;14.10;100.00;98700.41;10426369;28;20191;-76
2021/07/30 04:03:13;;;;;;;6.20;5.20;;;;;;;14.19;100.00;98695.09;10461602;28;20211;-78
2021/07/30 04:08:35;;;;;;;6.57;5.47;;;;;;;14.18;100.00;98692.75;10463024;28;20171;-78
2021/07/30 04:13:55;;;;;;;5.30;4.80;;;;;;;14.07;100.00;98706.81;10462877;28;20179;-78
2021/07/30 04:19:14;;;;;;;5.53;5.03;;;;;;;13.94;100.00;98708.69;10447461;28;20183;-77
2021/07/30 04:24:33;;;;;;;4.70;4.40;;;;;;;13.93;100.00;98698.84;10462367;28;20203;-77
2021/07/30 04:29:52;;;;;;;8.80;5.20;;;;;;;14.01;100.00;98713.31;10409037;28;20223;-77
2021/07/30 04:35:11;;;;;;;5.50;4.73;;;;;;;14.02;100.00;98718.38;10405769;28;20176;-79
2021/07/30 04:40:30;;;;;;;7.23;5.47;;;;;;;14.12;100.00;98713.84;10435804;28;20207;-78
2021/07/30 04:45:50;;;;;;;4.90;4.53;;;;;;;14.13;100.00;98707.09;10443316;28;20171;-77
2021/07/30 04:51:09;;;;;;;5.00;4.63;;;;;;;14.22;100.00;98708.03;10459613;28;20176;-79
2021/07/30 04:56:28;;;;;;;5.30;4.80;;;;;;;14.31;100.00;98722.06;10461241;28;20250;-78
2021/07/30 05:01:47;;;;;;;4.93;4.63;;;;;;;14.39;100.00;98718.69;10444339;28;20211;-78
2021/07/30 05:07:06;;;;;;;6.30;5.43;;;;;;;14.55;100.00;98712.34;10460704;28;20183;-80
2021/07/30 05:12:25;;;;;;;9.03;6.97;;;;;;;14.72;100.00;98714.69;10460643;28;20180;-78
2021/07/30 05:17:44;;;;;;;7.97;6.63;;;;;;;14.89;100.00;98712.66;10429819;28;20181;-79
2021/07/30 05:23:03;;;;;;;7.23;6.50;;;;;;;15.08;100.00;98717.28;10418462;28;20211;-79
2021/07/30 05:28:22;;;;;;;6.70;6.10;;;;;;;15.23;100.00;98706.19;10426525;28;20216;-78
2021/07/30 05:33:42;;;;;;;6.80;6.20;;;;;;;15.50;100.00;98712.13;10438272;28;20183;-80
2021/07/30 05:39:01;;;;;;;7.83;6.90;;;;;;;15.71;98.70;98711.50;10457575;28;20176;-79
2021/07/30 05:44:20;;;;;;;12.80;7.10;;;;;;;15.92;98.81;98699.72;10428473;28;20291;-78
2021/07/30 05:49:39;;;;;;;7.70;7.10;;;;;;;16.19;98.63;98702.84;10457293;28;20195;-77
2021/07/30 05:54:58;;;;;;;8.33;7.57;;;;;;;16.58;96.71;98702.34;10444819;28;20180;-78
2021/07/30 06:00:17;;;;;;;8.47;7.60;;;;;;;16.91;94.71;98705.16;10441027;28;20294;-78
2021/07/30 06:05:36;;;;;;;7.80;7.10;;;;;;;17.11;90.82;98705.63;10427774;28;20188;-78
2021/07/30 06:10:55;;;;;;;10.27;7.60;;;;;;;17.35;91.56;98706.78;10417083;28;20180;-78
2021/07/30 06:16:14;;;;;;;8.67;7.37;;;;;;;17.72;89.87;98700.97;10415491;28;20187;-77
2021/07/30 06:21:33;;;;;;;8.43;7.10;;;;;;;18.13;89.71;98705.31;10401498;28;20211;-78
2021/07/30 06:26:52;;;;;;;7.30;6.70;;;;;;;18.64;79.43;98702.41;10432933;28;20180;-76
2021/07/30 06:32:11;;;;;;;8.90;6.70;;;;;;;18.53;80.92;98699.28;10412563;28;20215;-77
2021/07/30 06:37:34;;;;;;;7.57;6.97;;;;;;;18.83;76.53;98703.22;10456396;28;20266;-77
2021/07/30 06:42:53;;;;;;;8.67;7.30;;;;;;;19.34;76.45;98704.94;10412839;28;20212;-79
2021/07/30 06:48:12;;;;;;;6.30;5.73;;;;;;;19.57;75.19;98707.06;10437987;28;20180;-78
2021/07/30 06:53:31;;;;;;;7.50;5.53;;;;;;;19.95;75.40;98701.75;10434826;28;20187;-78
2021/07/30 06:58:50;;;;;;;7.07;6.37;;;;;;;20.45;74.92;98696.84;10410291;28;20184;-77
2021/07/30 07:04:09;;;;;;;5.73;5.20;;;;;;;20.95;69.73;98698.72;10426474;28;20215;-77
2021/07/30 07:09:28;;;;;;;7.57;5.70;;;;;;;21.09;67.12;98687.59;10400130;28;20595;-79
2021/07/30 07:14:47;;;;;;;6.30;5.47;;;;;;;21.02;65.50;98685.16;10425507;28;20282;-79
2021/07/30 07:20:06;;;;;;;6.07;5.50;;;;;;;21.15;66.30;98680.06;10403274;28;20239;-78
2021/07/30 07:25:26;;;;;;;6.47;4.90;;;;;;;21.86;63.46;98673.00;10402688;28;20567;-79
2021/07/30 07:30:44;;;;;;;5.07;4.60;;;;;;;22.39;59.59;98670.03;10445862;28;20250;-78
2021/07/30 07:36:04;;;;;;;5.47;4.73;;;;;;;22.60;62.64;98672.38;10455262;28;20713;-78
2021/07/30 07:41:25;;;;;;;7.03;4.37;;;;;;;23.09;58.60;98669.44;10422552;28;20211;-78
2021/07/30 07:46:45;;;;;;;5.73;4.60;;;;;;;22.68;58.78;98668.66;10440355;28;20185;-78
2021/07/30 07:52:03;;;;;;;6.87;4.60;;;;;;;23.38;57.45;98662.38;10432703;28;20188;-80
2021/07/30 07:57:22;;;;;;;4.83;4.33;;;;;;;24.20;53.82;98651.88;10438603;28;20188;-78
2021/07/30 08:02:41;;;;;;;5.77;4.00;;;;;;;24.34;51.23;98648.16;10453296;28;20219;-76
2021/07/30 08:08:01;;;;;;;6.90;4.53;;;;;;;23.80;53.56;98637.28;10453168;28;20323;-78
2021/07/30 08:13:19;;;;;;;3.80;3.50;;;;;;;23.89;52.27;98636.31;10439641;28;20638;-78
2021/07/30 08:18:39;;;;;;;4.10;3.80;;;;;;;24.54;50.55;98642.41;10447721;28;20218;-77
2021/07/30 08:23:57;;;;;;;4.90;4.37;;;;;;;24.76;49.74;98636.13;10422390;28;20215;-78
2021/07/30 08:29:16;;;;;;;6.40;5.00;;;;;;;24.88;48.50;98644.09;10444628;28;20223;-79
2021/07/30 08:34:39;;;;;;;6.50;4.50;;;;;;;23.56;50.06;98639.59;10447057;28;20179;-76
2021/07/30 08:39:58;;;;;;;4.77;4.27;;;;;;;23.62;51.22;98629.16;10421440;28;20188;-76
2021/07/30 08:45:17;;;;;;;3.87;3.50;;;;;;;25.17;47.80;98624.78;10428028;28;20183;-75
2021/07/30 08:50:38;;;;;;;4.07;3.27;;;;;;;24.96;47.85;98626.22;10447303;28;20702;-75
2021/07/30 08:55:56;;;;;;;5.10;3.80;;;;;;;24.34;47.72;98619.25;10420057;28;20176;-79
2021/07/30 09:01:16;;;;;;;3.30;2.93;;;;;;;25.22;46.60;98614.81;10418242;28;20211;-75
2021/07/30 09:06:34;;;;;;;8.90;4.10;;;;;;;24.56;46.62;98625.00;10446247;28;20187;-77
2021/07/30 09:11:55;;;;;;;3.60;3.40;;;;;;;25.45;44.55;98613.56;10429329;28;20184;-77
2021/07/30 09:17:14;;;;;;;4.73;3.53;;;;;;;25.46;44.79;98601.78;10421963;28;20196;-76
2021/07/30 09:22:54;;;;;;;5.03;3.97;;;;;;;25.50;45.79;98596.69;10418645;28;20577;-76
2021/07/30 09:28:12;;;;;;;3.83;3.60;;;;;;;26.49;43.28;98599.44;10438436;28;20180;-75
2021/07/30 09:33:33;;;;;;;3.67;3.37;;;;;;;25.44;45.56;98595.91;10417234;28;20204;-75
2021/07/30 09:39:01;;;;;;;4.20;3.90;;;;;;;25.51;45.32;98589.75;10407518;28;20650;-78
2021/07/30 09:44:21;;;;;;;4.73;4.40;;;;;;;25.21;46.32;98585.13;10442047;28;20215;-79
2021/07/30 09:49:43;;;;;;;4.83;3.67;;;;;;;24.30;48.33;98579.34;10441925;28;20183;-78
2021/07/30 09:55:05;;;;;;;3.50;3.30;;;;;;;24.46;49.49;98570.28;10458617;28;20626;-78
2021/07/30 10:00:24;;;;;;;4.00;3.70;;;;;;;25.07;50.28;98550.25;10447235;28;20234;-80
2021/07/30 10:05:43;;;;;;;3.80;3.60;;;;;;;25.46;45.67;98561.59;10458400;28;20183;-77
2021/07/30 10:11:02;;;;;;;4.20;3.90;;;;;;;26.46;43.54;98544.03;10405847;28;20255;-76
2021/07/30 10:16:21;;;;;;;4.60;3.73;;;;;;;26.53;43.12;98541.47;10418415;28;20180;-76
2021/07/30 10:21:40;;;;;;;4.20;3.80;;;;;;;26.08;44.08;98547.72;10416305;28;20294;-77
2021/07/30 10:27:04;;;;;;;5.27;4.67;;;;;;;27.54;42.08;98525.66;10416433;28;20266;-76
2021/07/30 10:32:55;;;;;;;4.50;4.00;;;;;;;25.77;45.50;98536.75;10411950;28;20219;-76
2021/07/30 10:38:19;;;;;;;4.83;4.43;;;;;;;26.65;44.31;98512.66;10421368;28;20188;-77
2021/07/30 10:44:01;;;;;;;5.13;4.50;;;;;;;28.24;40.44;98507.81;10415448;28;20215;-75
2021/07/30 10:49:38;;;;;;;4.03;3.70;;;;;;;27.76;39.46;98504.97;10443043;28;20625;-77
2021/07/30 10:54:57;;;;;;;4.30;4.00;;;;;;;28.52;42.23;98504.09;10432729;28;20190;-78
2021/07/30 11:00:17;;;;;;;4.47;4.07;;;;;;;27.47;42.30;98500.81;10417203;28;20207;-77
2021/07/30 11:06:09;;;;;;;4.43;4.17;;;;;;;27.65;40.62;98499.41;10400210;28;20192;-76
2021/07/30 11:11:47;;;;;;;4.77;4.37;;;;;;;26.77;42.19;98500.00;10402107;28;20195;-78
2021/07/30 11:17:08;;;;;;;4.60;4.20;;;;;;;28.58;39.50;98487.81;10429172;28;20187;-78
2021/07/30 11:22:27;;;;;;;4.47;4.03;;;;;;;28.10;39.53;98489.19;10399105;28;20767;-78
2021/07/30 11:27:47;;;;;;;4.83;4.33;;;;;;;28.32;39.20;98484.03;10414969;28;20184;-78
2021/07/30 11:33:06;;;;;;;4.33;4.03;;;;;;;29.60;37.36;98469.03;10424281;28;20208;-77
2021/07/30 11:38:25;;;;;;;4.40;4.00;;;;;;;28.78;37.84;98475.94;10414485;28;20187;-77
2021/07/30 11:44:04;;;;;;;5.13;4.77;;;;;;;30.10;36.08;98466.81;10434619;28;20210;-77
2021/07/30 11:49:34;;;;;;;4.80;4.40;;;;;;;30.22;35.68;98464.50;10438369;28;20213;-77
2021/07/30 11:54:53;;;;;;;4.83;4.43;;;;;;;27.90;39.23;98455.72;10451363;28;20204;-79
2021/07/30 12:00:26;;;;;;;4.77;4.37;;;;;;;28.94;38.83;98448.72;10432179;28;20629;-77
2021/07/30 12:05:49;;;;;;;5.10;4.23;;;;;;;28.77;39.38;98445.34;10422263;28;20251;-77
2021/07/30 12:11:08;;;;;;;5.57;4.17;;;;;;;29.98;35.88;98439.94;10424615;28;20173;-78
2021/07/30 12:16:28;;;;;;;4.67;3.60;;;;;;;29.64;37.90;98432.59;10461817;28;20195;-77
2021/07/30 12:22:06;;;;;;;4.70;4.40;;;;;;;30.24;34.51;98417.22;10433294;28;20215;-77
2021/07/30 12:27:25;;;;;;;4.37;4.13;;;;;;;30.01;35.20;98401.97;10436223;28;20176;-79
2021/07/30 12:32:44;;;;;;;5.00;4.60;;;;;;;30.98;35.02;98397.47;10419209;28;20219;-79
2021/07/30 12:38:08;;;;;;;4.00;3.80;;;;;;;31.28;34.07;98377.13;10405578;28;20173;-78
2021/07/30 12:43:36;;;;;;;4.40;4.10;;;;;;;29.71;36.21;98391.50;10405241;28;20203;-78
2021/07/30 12:48:56;;;;;;;4.43;4.13;;;;;;;30.47;34.17;98358.69;10419207;28;20262;-78
2021/07/30 12:54:16;;;;;;;4.97;4.43;;;;;;;30.33;35.46;98350.75;10411171;28;20187;-78
2021/07/30 12:59:56;;;;;;;4.77;3.70;;;;;;;29.60;35.26;98343.50;10420348;28;20188;-77
2021/07/30 13:05:18;;;;;;;4.40;4.10;;;;;;;30.34;34.49;98336.00;10440970;28;20188;-77
2021/07/30 13:10:37;;;;;;;4.73;4.33;;;;;;;29.72;35.36;98333.47;10460155;28;20191;-77
2021/07/30 13:15:56;;;;;;;7.80;4.60;;;;;;;30.55;36.44;98316.94;10459387;28;20626;-77
2021/07/30 13:21:15;;;;;;;4.93;4.40;;;;;;;29.63;35.00;98306.31;10445168;28;20214;-77
2021/07/30 13:26:34;;;;;;;6.27;5.50;;;;;;;29.97;34.35;98301.50;10460311;28;20179;-77
2021/07/30 13:31:55;;;;;;;4.70;4.30;;;;;;;29.01;35.87;98300.81;10443000;28;20223;-78
2021/07/30 13:37:14;;;;;;;4.60;4.33;;;;;;;29.91;34.28;98291.53;10444772;28;20183;-77
2021/07/30 13:42:34;;;;;;;4.97;4.57;;;;;;;29.48;34.56;98291.19;10417889;28;20215;-77
2021/07/30 13:47:53;;;;;;;8.13;4.13;;;;;;;30.74;35.33;98283.44;10401957;28;20635;-77
2021/07/30 13:53:12;;;;;;;4.53;4.20;;;;;;;30.18;34.53;98268.25;10418952;28;20199;-77
2021/07/30 13:58:32;;;;;;;6.77;4.70;;;;;;;30.65;34.06;98269.72;10417705;28;20176;-77
2021/07/30 14:03:51;;;;;;;6.07;4.87;;;;;;;29.36;35.77;98256.59;10415887;28;20204;-76
2021/07/30 14:09:10;;;;;;;4.70;4.40;;;;;;;30.46;34.55;98239.97;10402486;28;20172;-77
2021/07/30 14:14:36;;;;;;;7.33;5.30;;;;;;;29.69;34.98;98241.75;10409942;28;20202;-77
2021/07/30 14:19:55;;;;;;;5.47;5.07;;;;;;;31.04;33.42;98218.34;10458052;28;20199;-78
2021/07/30 14:25:14;;;;;;;6.43;5.70;;;;;;;30.33;35.18;98215.25;10451722;28;20191;-78
2021/07/30 14:30:34;;;;;;;6.37;5.07;;;;;;;29.15;36.47;98215.31;10440598;28;20673;-77
2021/07/30 14:35:53;;;;;;;5.83;5.43;;;;;;;29.25;37.66;98210.69;10440510;28;20642;-77
2021/07/30 14:41:19;;;;;;;6.33;5.93;;;;;;;29.05;38.33;98205.72;10401972;28;20231;-77
2021/07/30 14:46:38;;;;;;;6.33;5.83;;;;;;;29.81;37.86;98186.31;10409930;28;20263;-77
2021/07/30 14:51:57;;;;;;;6.00;5.50;;;;;;;29.34;37.57;98201.75;10415729;28;20168;-77
2021/07/30 14:57:16;;;;;;;7.00;6.30;;;;;;;29.23;37.49;98204.84;10400459;28;20180;-76
2021/07/30 15:02:35;;;;;;;6.30;5.70;;;;;;;30.25;37.30;98188.88;10398581;28;20211;-75
2021/07/30 15:07:54;;;;;;;5.77;5.27;;;;;;;29.34;37.85;98196.88;10400141;28;20184;-76
2021/07/30 15:13:13;;;;;;;6.03;5.40;;;;;;;29.59;38.35;98197.38;10400474;28;20191;-77
2021/07/30 15:18:36;;;;;;;6.90;6.30;;;;;;;28.96;40.73;98206.13;10414664;28;20203;-75
2021/07/30 15:23:55;;;;;;;6.17;5.67;;;;;;;29.17;40.33;98207.00;10414500;28;20243;-77
2021/07/30 15:29:14;;;;;;;6.20;5.80;;;;;;;29.57;38.23;98192.28;10413298;28;20220;-76
2021/07/30 15:34:33;;;;;;;6.00;5.60;;;;;;;29.22;38.63;98195.56;10399758;28;20250;-76
2021/07/30 15:39:52;;;;;;;5.30;4.93;;;;;;;28.99;39.14;98213.56;10422825;28;20168;-76
2021/07/30 15:45:11;;;;;;;5.80;5.30;;;;;;;28.65;39.26;98214.66;10409945;28;20271;-76
2021/07/30 15:50:30;;;;;;;5.63;5.23;;;;;;;28.92;38.65;98207.78;10420304;28;20661;-75
2021/07/30 15:55:49;;;;;;;8.10;5.57;;;;;;;28.60;40.59;98213.47;10450441;28;20218;-78
2021/07/30 16:01:08;;;;;;;5.70;5.30;;;;;;;27.74;41.56;98211.50;10437269;28;20219;-77
2021/07/30 16:06:27;;;;;;;6.13;5.63;;;;;;;27.39;43.88;98218.63;10422342;28;20227;-77
2021/07/30 16:11:47;;;;;;;6.70;6.20;;;;;;;28.09;42.76;98219.69;10406930;28;20176;-76
2021/07/30 16:17:06;;;;;;;7.73;6.93;;;;;;;27.86;43.24;98206.44;10454963;28;20245;-77
2021/07/30 16:22:25;;;;;;;6.37;5.83;;;;;;;27.61;43.84;98190.84;10432368;28;20682;-75
2021/07/30 16:27:47;;;;;;;6.77;5.87;;;;;;;27.65;44.32;98194.94;10421081;28;20184;-75
2021/07/30 16:33:06;;;;;;;6.60;6.20;;;;;;;27.38;44.42;98215.06;10420249;28;20232;-74
2021/07/30 16:38:24;;;;;;;6.73;6.17;;;;;;;27.19;44.82;98200.13;10405637;28;20180;-74
2021/07/30 16:43:45;;;;;;;7.07;6.57;;;;;;;27.83;45.03;98204.69;10420136;28;20235;-76
2021/07/30 16:49:04;;;;;;;5.83;5.43;;;;;;;27.46;45.58;98208.25;10403872;28;20184;-76
2021/07/30 16:54:24;;;;;;;8.70;5.90;;;;;;;27.17;46.55;98216.84;10405303;28;20638;-76
2021/07/30 16:59:43;;;;;;;7.63;5.93;;;;;;;26.93;47.12;98213.25;10403918;28;20200;-75
2021/07/30 17:05:02;;;;;;;5.87;5.47;;;;;;;26.79;46.84;98209.56;10448775;28;20249;-76
2021/07/30 17:10:21;;;;;;;5.87;5.47;;;;;;;26.91;45.58;98213.75;10460967;28;20180;-74
2021/07/30 17:15:40;;;;;;;8.20;6.60;;;;;;;26.89;46.15;98212.78;10459278;28;20179;-75
2021/07/30 17:20:59;;;;;;;6.23;5.63;;;;;;;27.17;45.81;98205.53;10445267;28;20207;-75
2021/07/30 17:26:18;;;;;;;9.80;6.13;;;;;;;27.47;45.34;98218.25;10445159;28;20662;-74
2021/07/30 17:31:38;;;;;;;6.50;5.47;;;;;;;27.43;45.47;98217.78;10456454;28;20215;-75
2021/07/30 17:36:59;;;;;;;7.07;6.00;;;;;;;28.78;42.71;98217.53;10418639;28;20195;-75
2021/07/30 17:42:18;;;;;;;8.30;7.20;;;;;;;28.46;43.04;98217.56;10418105;28;20231;-74
2021/07/30 17:47:38;;;;;;;6.90;6.40;;;;;;;28.02;43.82;98222.41;10417182;28;20255;-75
2021/07/30 17:52:57;;;;;;;6.90;6.40;;;;;;;27.93;44.70;98225.63;10414241;28;20211;-74
2021/07/30 17:58:16;;;;;;;7.53;5.50;;;;;;;26.80;47.32;98230.84;10437315;28;20183;-75
2021/07/30 18:03:35;;;;;;;7.20;6.60;;;;;;;26.44;47.52;98230.66;10457104;28;20207;-74
2021/07/30 18:08:54;;;;;;;7.10;6.50;;;;;;;25.70;50.10;98227.28;10458760;28;20183;-74
2021/07/30 18:14:13;;;;;;;7.20;6.50;;;;;;;25.47;50.64;98225.88;10442507;28;20180;-74
2021/07/30 18:19:32;;;;;;;7.13;6.53;;;;;;;25.31;52.32;98218.28;10443095;28;20600;-74
2021/07/30 18:24:59;;;;;;;8.53;6.70;;;;;;;25.19;52.25;98214.00;10442422;28;20211;-73
2021/07/30 18:30:18;;;;;;;7.23;6.60;;;;;;;25.12;53.01;98217.31;10441006;28;20314;-74
2021/07/30 18:35:37;;;;;;;7.77;7.00;;;;;;;25.01;53.55;98219.38;10442271;28;20215;-74
2021/07/30 18:40:56;;;;;;;7.60;6.90;;;;;;;24.96;53.82;98219.44;10456464;28;20206;-74
2021/07/30 18:46:15;;;;;;;6.03;5.53;;;;;;;24.90;53.99;98241.94;10456040;28;20179;-73
2021/07/30 18:51:39;;;;;;;6.77;5.80;;;;;;;24.79;54.79;98244.03;10456914;28;20176;-73
2021/07/30 18:56:59;;;;;;;7.20;6.47;;;;;;;24.66;54.73;98238.16;10441622;28;20184;-74
2021/07/30 19:02:18;;;;;;;16.00;6.63;;;;;;;24.56;55.31;98243.28;10454840;28;20237;-74
2021/07/30 19:07:37;;;;;;;7.20;6.60;;;;;;;24.51;56.21;98240.47;10451784;28;20263;-74
2021/07/30 19:13:02;;;;;;;7.27;6.57;;;;;;;24.30;56.44;98250.44;10414630;28;20203;-74
2021/07/30 19:18:21;;;;;;;7.63;6.30;;;;;;;24.02;58.05;98248.88;10398611;28;20195;-74
2021/07/30 19:23:40;;;;;;;10.70;7.40;;;;;;;23.73;59.98;98244.44;10414306;28;20204;-77
2021/07/30 19:28:59;;;;;;;7.70;7.00;;;;;;;23.60;60.71;98238.53;10414533;28;20228;-76
2021/07/30 19:34:19;;;;;;;8.00;6.23;;;;;;;23.46;61.81;98224.72;10399882;28;20580;-75
2021/07/30 19:39:38;;;;;;;9.43;6.80;;;;;;;23.32;63.54;98224.91;10420141;28;20210;-74
2021/07/30 19:44:57;;;;;;;12.80;7.10;;;;;;;23.12;64.46;98227.88;10438931;28;20207;-73
2021/07/30 19:50:16;;;;;;;16.07;7.50;;;;;;;22.84;64.88;98236.13;10440667;28;20700;-73
2021/07/30 19:55:35;;;;;;;16.57;7.60;;;;;;;22.50;66.35;98244.84;10440330;28;20180;-74
2021/07/30 20:00:55;;;;;;;9.20;6.70;;;;;;;22.53;65.72;98247.41;10454023;28;20563;-73
2021/07/30 20:06:16;;;;;;;16.50;7.20;;;;;;;22.47;65.50;98256.28;10455214;28;20542;-74
2021/07/30 20:11:35;;;;;;;8.70;7.80;;;;;;;22.21;66.92;98258.31;10421987;28;20650;-74
2021/07/30 20:16:54;;;;;;;11.93;7.43;;;;;;;22.11;68.55;98266.16;10398462;28;20742;-75
2021/07/30 20:22:13;;;;;;;13.50;7.93;;;;;;;21.90;70.00;98275.84;10400829;28;20658;-74
2021/07/30 20:27:32;;;;;;;10.20;7.40;;;;;;;21.67;71.79;98280.94;10422534;28;20187;-74
2021/07/30 20:32:51;;;;;;;12.50;7.33;;;;;;;21.48;72.81;98274.09;10405378;28;20211;-74
2021/07/30 20:38:10;;;;;;;14.10;8.40;;;;;;;21.20;74.53;98268.13;10420931;28;20188;-74
2021/07/30 20:43:29;;;;;;;14.23;7.43;;;;;;;21.04;75.47;98270.72;10420023;28;20291;-74
2021/07/30 20:48:48;;;;;;;10.83;7.50;;;;;;;20.84;76.67;98265.09;10419084;28;20180;-73
2021/07/30 20:54:07;;;;;;;14.33;9.10;;;;;;;20.76;76.98;98263.97;10405122;28;20176;-74
2021/07/30 20:59:26;;;;;;;9.07;8.17;;;;;;;20.63;77.98;98266.31;10418933;28;20180;-74
2021/07/30 21:04:46;;;;;;;19.43;8.30;;;;;;;20.53;78.26;98267.66;10404317;28;20219;-76
2021/07/30 21:10:05;;;;;;;12.47;8.33;;;;;;;20.38;79.37;98278.09;10419935;28;20180;-73
2021/07/30 21:15:25;;;;;;;9.57;8.13;;;;;;;20.03;81.11;98271.66;10418367;28;20188;-76
2021/07/30 21:20:45;;;;;;;10.40;8.10;;;;;;;19.94;81.02;98273.00;10419312;28;20239;-76
2021/07/30 21:26:03;;;;;;;9.97;7.40;;;;;;;19.92;81.49;98275.50;10419124;28;20180;-76
2021/07/30 21:31:22;;;;;;;8.67;7.87;;;;;;;19.99;79.90;98281.47;10402194;28;20575;-76
2021/07/30 21:36:41;;;;;;;7.77;6.97;;;;;;;19.90;79.69;98286.38;10440154;28;20637;-75
2021/07/30 21:42:00;;;;;;;9.83;8.87;;;;;;;19.81;80.19;98292.03;10459541;28;20235;-76
2021/07/30 21:47:19;;;;;;;10.57;7.63;;;;;;;19.65;81.08;98293.28;10458434;28;20179;-76
2021/07/30 21:52:38;;;;;;;12.77;8.03;;;;;;;19.56;81.37;98298.16;10459255;28;20606;-77
2021/07/30 21:57:57;;;;;;;8.40;6.87;;;;;;;19.42;82.61;98307.25;10458962;28;20176;-76
2021/07/30 22:03:18;;;;;;;10.20;7.60;;;;;;;19.40;82.93;98315.31;10446225;28;20662;-77
2021/07/30 22:08:37;;;;;;;9.20;8.23;;;;;;;19.28;83.82;98324.72;10417483;28;20180;-76
2021/07/30 22:13:56;;;;;;;9.80;7.53;;;;;;;19.22;84.69;98323.84;10416919;28;20626;-77
2021/07/30 22:19:15;;;;;;;8.53;7.73;;;;;;;19.14;84.58;98333.81;10416780;28;20196;-76
2021/07/30 22:24:34;;;;;;;8.97;7.20;;;;;;;19.16;84.62;98331.28;10415858;28;20666;-76
2021/07/30 22:29:54;;;;;;;11.77;8.40;;;;;;;19.14;84.36;98336.59;10415621;28;20219;-76
2021/07/30 22:35:14;;;;;;;10.10;8.07;;;;;;;19.19;84.11;98335.13;10416561;28;20635;-76
2021/07/30 22:46:08;;;;;;;11.00;8.47;;;;;;;18.93;86.95;98332.00;10413748;28;20297;-76
2021/07/30 22:51:28;;;;;;;7.70;6.80;;;;;;;18.87;85.10;98330.34;10400870;28;20180;-75
2021/07/30 22:56:47;;;;;;;9.20;8.30;;;;;;;18.80;87.51;98345.41;10418640;28;20633;-76
2021/07/30 23:02:06;;;;;;;8.23;7.50;;;;;;;18.65;89.40;98347.34;10455282;28;20214;-75
2021/07/30 23:07:25;;;;;;;7.57;6.97;;;;;;;18.67;88.76;98344.81;10456685;28;20191;-76
2021/07/30 23:12:44;;;;;;;8.97;8.10;;;;;;;18.55;87.72;98345.81;10456152;28;20175;-75
2021/07/30 23:18:03;;;;;;;8.43;7.60;;;;;;;18.45;88.62;98361.00;10454976;28;20597;-75
2021/07/30 23:23:23;;;;;;;8.40;7.60;;;;;;;18.39;88.11;98364.13;10455927;28;20207;-75
2021/07/30 23:28:42;;;;;;;9.40;7.43;;;;;;;18.33;88.30;98371.56;10436859;28;20196;-75
2021/07/30 23:34:01;;;;;;;7.37;6.57;;;;;;;18.30;87.05;98380.84;10398718;28;20649;-76
2021/07/30 23:39:20;;;;;;;6.77;6.20;;;;;;;18.28;86.45;98383.31;10414596;28;20176;-76
2021/07/30 23:44:39;;;;;;;7.30;6.60;;;;;;;18.28;86.21;98386.91;10398319;28;20215;-75
2021/07/30 23:49:57;;;;;;;6.73;6.23;;;;;;;18.21;85.64;98405.91;10414359;28;20183;-77
2021/07/30 23:55:17;;;;;;;7.20;6.33;;;;;;;18.25;85.28;98401.75;10414384;28;20183;-77
